Time;durP1;ratioP1;P1;durP2;ratioP2;P2;SDS_P1;SDS_P2;PMS_P1;PMS_P2;Temp;Humidity;BMP_temperature;BMP_pressure;BME280_temperature;BME280_humidity;BME280_pressure;Samples;Min_cycle;Max_cycle;Signal;HPM_P1;HPM_P2
2023/08/13 00:00:24;;;;;;;11.98;2.50;;;15.60;99.90;;;;;;5074792;28;20149;-56
2023/08/13 00:02:49;;;;;;;8.10;2.40;;;15.50;99.90;;;;;;5059317;28;20060;-56
2023/08/13 00:05:15;;;;;;;8.10;1.92;;;15.60;99.90;;;;;;5061592;28;20048;-56
2023/08/13 00:07:41;;;;;;;7.35;2.33;;;15.60;99.90;;;;;;5062472;28;20776;-57
2023/08/13 00:10:06;;;;;;;9.57;3.55;;;15.60;99.90;;;;;;5023833;28;1147443;-55
2023/08/13 00:12:32;;;;;;;9.95;2.80;;;15.60;99.90;;;;;;5055514;28;20502;-56
2023/08/13 00:15:03;;;;;;;6.45;2.45;;;15.50;99.90;;;;;;5046766;28;20498;-56
2023/08/13 00:17:29;;;;;;;5.28;2.42;;;15.60;99.90;;;;;;5091831;28;20063;-56
2023/08/13 00:19:55;;;;;;;4.55;2.28;;;15.60;99.90;;;;;;5104164;28;20389;-56
2023/08/13 00:22:21;;;;;;;6.00;2.05;;;15.60;99.90;;;;;;5101790;28;20068;-56
2023/08/13 00:24:49;;;;;;;9.02;2.00;;;15.60;99.90;;;;;;5104599;28;20610;-56
2023/08/13 00:27:15;;;;;;;7.32;2.05;;;15.60;99.90;;;;;;5101642;28;20161;-56
2023/08/13 00:29:41;;;;;;;8.38;2.28;;;15.60;99.90;;;;;;5101533;28;20056;-55
2023/08/13 00:32:06;;;;;;;10.52;2.08;;;15.60;99.90;;;;;;5100888;28;20056;-56
2023/08/13 00:34:32;;;;;;;6.15;2.67;;;15.60;99.90;;;;;;5101550;28;20051;-56
2023/08/13 00:36:58;;;;;;;8.05;3.42;;;15.50;99.90;;;;;;5027407;28;20048;-56
2023/08/13 00:39:23;;;;;;;8.30;2.30;;;15.60;99.90;;;;;;5065955;28;20572;-57
2023/08/13 00:41:49;;;;;;;5.82;1.92;;;15.50;99.90;;;;;;5044269;28;20048;-57
2023/08/13 00:44:17;;;;;;;7.63;2.05;;;15.50;99.90;;;;;;5052603;28;20057;-56
2023/08/13 00:46:42;;;;;;;8.05;2.28;;;15.40;99.90;;;;;;5043127;28;20063;-57
2023/08/13 00:49:08;;;;;;;11.75;2.83;;;15.50;99.90;;;;;;5070436;28;20485;-56
2023/08/13 00:51:36;;;;;;;11.32;2.63;;;15.40;99.90;;;;;;5048215;28;20056;-55
2023/08/13 00:54:06;;;;;;;10.65;2.38;;;15.40;99.90;;;;;;5047035;28;20077;-56
2023/08/13 00:56:32;;;;;;;7.97;2.28;;;15.40;99.90;;;;;;5102052;28;20062;-57
2023/08/13 00:58:58;;;;;;;12.93;3.20;;;15.40;99.90;;;;;;5076083;28;20044;-56
2023/08/13 01:01:24;;;;;;;5.28;1.92;;;15.40;99.90;;;;;;5048516;28;20465;-57
2023/08/13 01:03:49;;;;;;;6.53;2.28;;;15.40;99.90;;;;;;5048398;28;20060;-55
2023/08/13 01:06:37;;;;;;;4.93;1.90;;;15.40;99.90;;;;;;5080497;28;20100;-56
2023/08/13 01:09:06;;;;;;;9.07;2.22;;;15.40;99.90;;;;;;5103499;28;20094;-55
2023/08/13 01:14:33;;;;;;;8.63;2.40;;;15.40;99.90;;;;;;5058697;28;20187;-55
2023/08/13 01:17:03;;;;;;;11.18;3.03;;;15.40;99.90;;;;;;5054027;28;20056;-56
2023/08/13 01:19:29;;;;;;;5.70;2.55;;;15.40;99.90;;;;;;5072888;28;20090;-55
2023/08/13 01:21:55;;;;;;;8.30;2.42;;;15.40;99.90;;;;;;5098040;28;20051;-55
2023/08/13 01:24:21;;;;;;;9.90;2.80;;;15.40;99.90;;;;;;5066573;28;20056;-55
2023/08/13 01:27:06;;;;;;;5.55;2.15;;;15.40;99.90;;;;;;5046239;28;20049;-55
2023/08/13 01:29:48;;;;;;;8.20;2.67;;;15.40;99.90;;;;;;5070342;28;20509;-57
2023/08/13 01:32:18;;;;;;;6.25;2.30;;;15.40;99.90;;;;;;5059868;28;20086;-55
2023/08/13 01:34:46;;;;;;;8.80;3.85;;;15.40;99.90;;;;;;5053389;28;20150;-55
2023/08/13 01:37:12;;;;;;;6.65;3.13;;;15.40;99.90;;;;;;5050016;28;20206;-57
2023/08/13 01:39:38;;;;;;;9.73;2.70;;;15.40;99.90;;;;;;5103321;28;20047;-60
2023/08/13 01:42:06;;;;;;;12.45;3.25;;;15.30;99.90;;;;;;5102570;28;20390;-57
2023/08/13 01:44:32;;;;;;;8.45;2.55;;;15.30;99.90;;;;;;5094178;28;20102;-63
2023/08/13 01:46:57;;;;;;;7.93;2.45;;;15.30;99.90;;;;;;5065220;28;20143;-55
2023/08/13 01:49:23;;;;;;;8.35;2.17;;;15.30;99.90;;;;;;5044027;28;20083;-55
2023/08/13 01:51:49;;;;;;;8.23;2.92;;;15.30;99.90;;;;;;5047983;28;20059;-60
2023/08/13 01:54:15;;;;;;;10.18;2.75;;;15.30;99.90;;;;;;5094909;28;20055;-55
2023/08/13 01:56:41;;;;;;;9.57;2.60;;;15.30;99.90;;;;;;5102429;28;20055;-55
2023/08/13 01:59:06;;;;;;;13.65;3.53;;;15.30;99.90;;;;;;5098741;28;20058;-55
2023/08/13 02:01:32;;;;;;;10.93;3.20;;;15.30;99.90;;;;;;5054206;28;20139;-57
2023/08/13 02:03:57;;;;;;;9.48;2.80;;;15.30;99.90;;;;;;5086491;28;20501;-56
2023/08/13 02:06:23;;;;;;;6.85;3.00;;;15.30;99.90;;;;;;5099475;28;20063;-55
2023/08/13 02:08:49;;;;;;;6.47;2.50;;;15.30;99.90;;;;;;5102865;28;20059;-58
2023/08/13 02:11:14;;;;;;;9.93;3.13;;;15.30;99.90;;;;;;5099386;28;20085;-55
2023/08/13 02:13:40;;;;;;;12.15;3.03;;;15.30;99.90;;;;;;5074979;28;20770;-58
2023/08/13 02:16:06;;;;;;;10.45;2.85;;;15.30;99.90;;;;;;5100693;28;20059;-61
2023/08/13 02:18:32;;;;;;;5.88;2.40;;;15.30;99.90;;;;;;5101381;28;20043;-55
2023/08/13 02:20:58;;;;;;;9.05;2.90;;;15.30;99.90;;;;;;5102338;28;20071;-55
2023/08/13 02:23:23;;;;;;;6.00;2.60;;;15.30;99.90;;;;;;5098946;28;20567;-55
2023/08/13 02:25:49;;;;;;;15.70;3.45;;;15.30;99.90;;;;;;5102358;28;20054;-55
2023/08/13 02:28:15;;;;;;;9.77;2.40;;;15.30;99.90;;;;;;5095366;28;20160;-55
2023/08/13 02:30:40;;;;;;;14.35;4.03;;;15.30;99.90;;;;;;5057634;28;20073;-56
2023/08/13 02:33:06;;;;;;;8.02;2.92;;;15.30;99.90;;;;;;5094901;28;20048;-55
2023/08/13 02:35:32;;;;;;;8.93;2.38;;;15.30;99.90;;;;;;5099445;28;20180;-55
2023/08/13 02:37:57;;;;;;;9.82;2.85;;;15.30;99.90;;;;;;5078533;28;20063;-56
2023/08/13 02:40:23;;;;;;;12.60;3.13;;;15.40;99.90;;;;;;5097501;28;20044;-57
2023/08/13 02:42:49;;;;;;;13.55;4.00;;;15.40;99.90;;;;;;5102381;28;20516;-56
2023/08/13 02:45:15;;;;;;;11.82;3.58;;;15.40;99.90;;;;;;5040576;28;20049;-56
2023/08/13 02:47:40;;;;;;;4.68;2.40;;;15.40;99.90;;;;;;5048470;28;20507;-55
2023/08/13 02:50:06;;;;;;;6.50;3.35;;;15.40;99.90;;;;;;5042592;28;20636;-54
2023/08/13 02:52:32;;;;;;;9.07;3.00;;;15.40;99.90;;;;;;5048228;28;20051;-55
2023/08/13 02:54:58;;;;;;;12.93;3.45;;;15.40;99.90;;;;;;5052000;28;20689;-54
2023/08/13 02:57:24;;;;;;;10.60;2.95;;;15.40;99.90;;;;;;5057511;28;20497;-55
2023/08/13 02:59:49;;;;;;;10.45;2.90;;;15.40;99.90;;;;;;5081453;28;20493;-55
2023/08/13 03:02:16;;;;;;;14.10;3.83;;;15.30;99.90;;;;;;5097650;28;20082;-58
2023/08/13 03:04:42;;;;;;;13.50;3.35;;;15.30;99.90;;;;;;5099763;28;20055;-58
2023/08/13 03:07:08;;;;;;;10.32;2.47;;;15.30;99.90;;;;;;5100064;28;20045;-58
2023/08/13 03:09:33;;;;;;;13.73;3.33;;;15.30;99.90;;;;;;5068626;28;20048;-58
2023/08/13 03:12:03;;;;;;;13.85;2.92;;;15.30;99.90;;;;;;5093318;28;20066;-59
2023/08/13 03:14:28;;;;;;;8.23;3.00;;;15.30;99.90;;;;;;5103653;28;20092;-58
2023/08/13 03:16:54;;;;;;;10.18;2.83;;;15.30;99.90;;;;;;5106080;28;20517;-58
2023/08/13 03:19:20;;;;;;;8.60;2.15;;;15.30;99.90;;;;;;5103506;28;20068;-58
2023/08/13 03:21:46;;;;;;;11.15;2.45;;;15.30;99.90;;;;;;5105039;28;20051;-58
2023/08/13 03:24:11;;;;;;;13.70;4.50;;;15.30;99.90;;;;;;5086469;28;20082;-58
2023/08/13 03:26:37;;;;;;;6.97;2.80;;;15.20;99.90;;;;;;5072235;28;20109;-59
2023/08/13 03:29:03;;;;;;;6.43;3.05;;;15.20;99.90;;;;;;5051089;28;20055;-60
2023/08/13 03:31:29;;;;;;;10.02;3.03;;;15.20;99.90;;;;;;5057910;28;20062;-59
2023/08/13 03:33:55;;;;;;;9.98;3.08;;;15.20;99.90;;;;;;5105291;28;20047;-58
2023/08/13 03:36:20;;;;;;;14.38;3.47;;;15.20;99.90;;;;;;5101281;28;20067;-65
2023/08/13 03:38:46;;;;;;;7.88;2.85;;;15.10;99.90;;;;;;5024912;28;20056;-59
2023/08/13 03:41:12;;;;;;;8.15;2.80;;;15.20;99.90;;;;;;5098118;28;20067;-60
2023/08/13 03:43:37;;;;;;;9.32;3.13;;;15.10;99.90;;;;;;5102920;28;20044;-61
2023/08/13 03:46:03;;;;;;;12.98;3.15;;;15.10;99.90;;;;;;5104473;28;20066;-56
2023/08/13 03:48:29;;;;;;;12.27;3.95;;;15.10;99.90;;;;;;5102991;28;20580;-59
2023/08/13 03:50:55;;;;;;;13.00;3.20;;;15.10;99.90;;;;;;5105355;28;20802;-59
2023/08/13 03:53:24;;;;;;;7.07;2.65;;;15.10;99.90;;;;;;5103013;28;20051;-59
2023/08/13 03:55:50;;;;;;;10.65;3.05;;;15.00;99.90;;;;;;5060552;28;20072;-58
2023/08/13 03:58:16;;;;;;;10.73;3.42;;;15.00;99.90;;;;;;5054679;28;20048;-59
2023/08/13 04:00:42;;;;;;;14.38;2.97;;;15.00;99.90;;;;;;5103292;28;20618;-62
2023/08/13 04:03:09;;;;;;;11.45;3.45;;;15.00;99.90;;;;;;5063840;28;20131;-60
2023/08/13 04:05:35;;;;;;;8.63;2.97;;;15.00;99.90;;;;;;5051114;28;20056;-63
2023/08/13 04:08:05;;;;;;;10.07;3.17;;;15.00;99.90;;;;;;5057321;28;20103;-58
2023/08/13 04:10:30;;;;;;;8.70;2.65;;;15.00;99.90;;;;;;5093807;28;20602;-59
2023/08/13 04:12:56;;;;;;;10.55;2.78;;;15.00;99.90;;;;;;5104928;28;20052;-59
2023/08/13 04:15:24;;;;;;;6.32;3.05;;;15.00;99.90;;;;;;5075942;28;20117;-61
2023/08/13 04:17:50;;;;;;;14.60;3.58;;;15.00;99.90;;;;;;5072314;28;20784;-65
2023/08/13 04:20:16;;;;;;;13.30;4.55;;;15.00;99.90;;;;;;5096319;28;20220;-61
2023/08/13 04:22:41;;;;;;;12.07;4.10;;;15.00;99.90;;;;;;5105016;28;20052;-64
2023/08/13 04:25:07;;;;;;;6.25;2.50;;;15.10;99.90;;;;;;5102718;28;20138;-63
2023/08/13 04:27:34;;;;;;;11.48;3.78;;;15.10;99.90;;;;;;5012366;28;1135386;-59
2023/08/13 04:32:25;;;;;;;9.68;3.55;;;15.10;99.90;;;;;;5063620;28;20068;-62
2023/08/13 04:34:51;;;;;;;12.90;4.07;;;15.20;99.90;;;;;;5060535;28;20053;-58
2023/08/13 04:37:17;;;;;;;8.88;2.97;;;15.20;99.90;;;;;;5067071;28;20060;-57
2023/08/13 04:39:43;;;;;;;10.90;3.70;;;15.20;99.90;;;;;;5103878;28;20055;-59
2023/08/13 04:42:09;;;;;;;9.75;4.85;;;15.30;99.90;;;;;;5101954;28;20511;-60
2023/08/13 04:44:34;;;;;;;11.95;3.65;;;15.40;99.90;;;;;;5052490;28;20048;-57
2023/08/13 04:47:25;;;;;;;11.27;3.35;;;15.40;99.90;;;;;;5047510;28;20060;-59
2023/08/13 04:49:50;;;;;;;11.48;4.38;;;15.50;99.90;;;;;;5101412;28;20063;-60
2023/08/13 04:52:16;;;;;;;11.45;3.33;;;15.50;99.90;;;;;;5095182;28;20052;-58
2023/08/13 04:54:45;;;;;;;14.60;4.68;;;15.60;99.90;;;;;;5073923;28;20056;-59
2023/08/13 04:57:10;;;;;;;5.78;2.92;;;15.70;99.90;;;;;;5072027;28;20099;-58
2023/08/13 04:59:36;;;;;;;11.35;3.88;;;15.80;99.90;;;;;;5066024;28;20678;-59
2023/08/13 05:02:03;;;;;;;11.18;4.10;;;15.80;99.90;;;;;;5103102;28;20824;-59
2023/08/13 05:04:29;;;;;;;6.82;3.63;;;15.90;99.90;;;;;;5099196;28;20044;-60
2023/08/13 05:06:55;;;;;;;8.70;3.33;;;16.00;99.90;;;;;;5087212;28;20557;-59
2023/08/13 05:09:20;;;;;;;7.38;3.22;;;16.00;99.90;;;;;;5100218;28;20048;-58
2023/08/13 05:11:46;;;;;;;10.07;3.50;;;16.10;99.90;;;;;;5085774;28;20067;-59
2023/08/13 05:14:12;;;;;;;6.53;2.97;;;16.20;99.90;;;;;;5065318;28;20047;-58
2023/08/13 05:16:38;;;;;;;6.30;3.00;;;16.10;99.90;;;;;;5086383;28;20584;-58
2023/08/13 05:19:03;;;;;;;14.50;4.63;;;16.20;99.90;;;;;;5102461;28;20082;-56
2023/08/13 05:21:29;;;;;;;13.95;3.50;;;16.30;99.90;;;;;;5100762;28;20108;-59
2023/08/13 05:23:55;;;;;;;5.82;3.35;;;16.30;99.90;;;;;;5098155;28;20132;-57
2023/08/13 05:26:21;;;;;;;18.60;4.65;;;16.40;99.90;;;;;;5097540;28;20070;-58
2023/08/13 05:28:47;;;;;;;10.13;3.08;;;16.40;99.90;;;;;;5086501;28;20057;-60
2023/08/13 05:31:13;;;;;;;8.95;2.83;;;16.50;99.90;;;;;;5089140;28;20048;-57
2023/08/13 05:33:39;;;;;;;10.95;3.67;;;16.50;99.90;;;;;;5102884;28;20461;-58
2023/08/13 05:36:05;;;;;;;13.88;3.97;;;16.60;99.90;;;;;;5099729;28;20059;-58
2023/08/13 05:38:32;;;;;;;11.13;3.75;;;16.70;99.90;;;;;;5077922;28;20456;-58
2023/08/13 05:40:57;;;;;;;10.27;3.42;;;16.90;99.90;;;;;;5030886;28;20495;-61
2023/08/13 05:43:23;;;;;;;10.20;3.88;;;17.00;99.90;;;;;;5097964;28;20058;-59
2023/08/13 05:45:49;;;;;;;15.57;4.63;;;17.10;99.90;;;;;;5076535;28;20051;-61
2023/08/13 05:48:15;;;;;;;12.52;3.03;;;17.10;99.90;;;;;;5079453;28;20059;-58
2023/08/13 05:50:41;;;;;;;9.35;4.13;;;17.50;99.90;;;;;;5058897;28;20065;-63
2023/08/13 05:53:06;;;;;;;9.27;3.67;;;17.20;99.90;;;;;;5082301;28;20196;-61
2023/08/13 05:55:32;;;;;;;9.30;3.13;;;17.20;99.90;;;;;;5097178;28;20055;-61
2023/08/13 05:57:58;;;;;;;7.80;2.90;;;17.30;99.90;;;;;;5102629;28;20055;-59
2023/08/13 06:00:24;;;;;;;13.02;3.78;;;17.30;99.90;;;;;;5097043;28;20052;-59
2023/08/13 06:02:50;;;;;;;9.50;3.03;;;17.30;99.90;;;;;;5102417;28;20449;-57
2023/08/13 06:05:16;;;;;;;8.65;3.33;;;17.40;99.90;;;;;;5081230;28;20076;-58
2023/08/13 06:07:41;;;;;;;9.80;3.50;;;17.40;99.90;;;;;;5102847;28;20056;-57
2023/08/13 06:10:08;;;;;;;5.88;2.90;;;17.50;99.90;;;;;;5078873;28;20460;-56
2023/08/13 06:12:34;;;;;;;10.77;3.53;;;16.60;99.90;;;;;;5096620;28;20138;-55
2023/08/13 06:15:04;;;;;;;13.23;4.15;;;17.50;99.90;;;;;;5100037;28;20055;-55
2023/08/13 06:17:29;;;;;;;10.73;3.67;;;17.40;99.90;;;;;;5098236;28;20048;-55
2023/08/13 06:19:55;;;;;;;10.10;3.28;;;17.40;99.90;;;;;;5100473;28;20060;-55
2023/08/13 06:22:21;;;;;;;7.28;3.58;;;17.40;99.90;;;;;;5065753;28;20110;-55
2023/08/13 06:24:47;;;;;;;10.90;3.55;;;17.50;99.90;;;;;;5093782;28;20051;-55
2023/08/13 06:27:15;;;;;;;11.73;4.03;;;17.50;99.90;;;;;;5098484;28;20564;-55
2023/08/13 06:29:41;;;;;;;10.23;3.17;;;17.70;99.90;;;;;;5102471;28;20055;-56
2023/08/13 06:32:07;;;;;;;7.65;3.17;;;18.00;99.90;;;;;;5080082;28;20054;-55
2023/08/13 06:34:33;;;;;;;11.68;2.95;;;18.30;99.90;;;;;;5099889;28;20051;-55
2023/08/13 06:36:59;;;;;;;8.93;2.85;;;18.50;99.90;;;;;;5053092;28;20076;-56
2023/08/13 06:39:24;;;;;;;11.45;2.63;;;18.80;99.90;;;;;;5046625;28;20130;-56
2023/08/13 06:41:50;;;;;;;7.55;3.10;;;19.00;99.90;;;;;;5057621;28;20586;-55
2023/08/13 06:44:18;;;;;;;11.45;3.05;;;19.40;99.90;;;;;;5084291;28;20808;-56
2023/08/13 06:46:45;;;;;;;10.60;3.38;;;19.80;99.90;;;;;;5095497;28;20108;-56
2023/08/13 06:49:10;;;;;;;6.95;3.30;;;20.10;99.90;;;;;;5090905;28;20062;-55
2023/08/13 06:51:36;;;;;;;7.03;3.40;;;20.00;99.90;;;;;;5099543;28;20051;-56
2023/08/13 06:54:03;;;;;;;6.70;3.05;;;20.10;99.90;;;;;;5065708;28;20500;-56
2023/08/13 06:56:30;;;;;;;8.75;2.90;;;20.20;99.90;;;;;;5099227;28;20059;-56
2023/08/13 06:58:56;;;;;;;7.47;2.55;;;20.30;99.90;;;;;;5100098;28;20418;-56
2023/08/13 07:01:22;;;;;;;9.45;3.17;;;20.30;99.90;;;;;;5097332;28;20123;-56
2023/08/13 07:03:48;;;;;;;8.32;3.40;;;20.20;99.90;;;;;;5099049;28;20064;-58
2023/08/13 07:06:14;;;;;;;8.77;4.25;;;19.60;99.90;;;;;;5096225;28;20064;-58
2023/08/13 07:08:40;;;;;;;6.60;2.63;;;19.50;99.90;;;;;;5095929;28;20083;-59
2023/08/13 07:11:06;;;;;;;6.95;3.20;;;19.50;99.90;;;;;;5053138;28;20134;-57
2023/08/13 07:13:31;;;;;;;8.88;3.00;;;19.50;99.90;;;;;;5098166;28;20060;-58
2023/08/13 07:15:57;;;;;;;6.57;2.50;;;19.40;99.90;;;;;;5073411;28;20058;-58
2023/08/13 07:18:23;;;;;;;7.38;2.90;;;19.90;99.90;;;;;;5097382;28;21307;-58
2023/08/13 07:20:49;;;;;;;11.90;3.10;;;20.10;99.90;;;;;;5064650;28;20048;-58
2023/08/13 07:23:14;;;;;;;8.75;2.78;;;20.30;99.90;;;;;;5046716;28;20084;-59
2023/08/13 07:25:40;;;;;;;5.85;2.42;;;20.70;99.90;;;;;;5100373;28;20059;-59
2023/08/13 07:28:06;;;;;;;11.80;3.13;;;20.70;99.90;;;;;;5089316;28;20082;-58
2023/08/13 07:30:32;;;;;;;6.00;2.22;;;20.70;99.90;;;;;;5097901;28;20571;-58
2023/08/13 07:32:58;;;;;;;7.93;3.08;;;20.90;99.90;;;;;;5107322;28;20109;-58
2023/08/13 07:35:24;;;;;;;12.30;2.97;;;21.00;99.90;;;;;;5097989;28;20056;-58
2023/08/13 07:37:50;;;;;;;10.52;3.42;;;21.20;99.90;;;;;;5101749;28;20165;-58
2023/08/13 07:40:16;;;;;;;6.55;2.17;;;21.20;99.90;;;;;;5102085;28;20056;-58
2023/08/13 07:42:42;;;;;;;8.45;2.65;;;21.20;99.90;;;;;;5085971;28;20177;-58
2023/08/13 07:45:09;;;;;;;9.63;2.92;;;21.30;99.90;;;;;;5099425;28;20052;-63
2023/08/13 07:47:36;;;;;;;9.18;3.08;;;21.50;99.90;;;;;;5098028;28;20064;-61
2023/08/13 07:50:05;;;;;;;9.50;3.38;;;21.60;99.90;;;;;;5096913;28;20069;-60
2023/08/13 07:52:31;;;;;;;9.60;2.33;;;22.00;99.90;;;;;;5095972;28;20134;-59
2023/08/13 07:54:57;;;;;;;13.10;3.38;;;22.30;99.90;;;;;;5096656;27;20051;-59
2023/08/13 07:57:23;;;;;;;8.88;3.13;;;22.70;99.90;;;;;;5098166;27;20055;-58
2023/08/13 07:59:49;;;;;;;6.82;2.60;;;23.20;99.90;;;;;;5068531;27;20051;-58
2023/08/13 08:02:15;;;;;;;5.03;2.35;;;23.10;99.90;;;;;;5090605;27;20467;-58
2023/08/13 08:04:42;;;;;;;5.15;1.80;;;23.20;99.90;;;;;;5098301;27;20492;-58
2023/08/13 08:07:08;;;;;;;9.50;2.60;;;23.10;99.90;;;;;;5065848;27;20478;-58
2023/08/13 08:09:34;;;;;;;7.70;2.92;;;23.20;99.90;;;;;;5097690;27;20059;-58
2023/08/13 08:12:03;;;;;;;5.43;2.40;;;23.00;99.90;;;;;;5099673;28;20055;-58
2023/08/13 08:14:29;;;;;;;8.57;2.67;;;22.50;99.90;;;;;;5089997;27;20313;-60
2023/08/13 08:17:00;;;;;;;7.22;2.70;;;23.30;99.90;;;;;;5106321;27;20446;-58
2023/08/13 08:19:25;;;;;;;5.82;1.92;;;23.60;99.90;;;;;;5098639;27;20132;-58
2023/08/13 08:21:50;;;;;;;7.82;2.60;;;24.00;99.90;;;;;;5099744;27;20153;-58
2023/08/13 08:24:16;;;;;;;7.63;2.22;;;23.80;99.90;;;;;;5091000;27;20534;-58
2023/08/13 08:26:42;;;;;;;6.75;2.60;;;24.30;99.90;;;;;;5102841;27;20568;-59
2023/08/13 08:29:07;;;;;;;8.50;2.85;;;25.10;99.90;;;;;;5085732;27;20052;-55
2023/08/13 08:31:33;;;;;;;7.40;2.67;;;25.00;99.90;;;;;;5080182;27;20056;-64
2023/08/13 08:33:59;;;;;;;7.30;2.30;;;25.30;99.90;;;;;;5088617;28;20104;-66
2023/08/13 08:36:24;;;;;;;7.15;2.17;;;25.40;99.90;;;;;;5089531;27;20149;-64
2023/08/13 08:38:50;;;;;;;10.10;2.45;;;25.70;99.90;;;;;;5094927;27;20450;-55
2023/08/13 08:41:18;;;;;;;4.20;1.70;;;25.60;99.90;;;;;;5094707;27;20059;-56
2023/08/13 08:43:44;;;;;;;4.13;1.92;;;25.80;99.90;;;;;;5099151;27;20053;-58
2023/08/13 08:46:12;;;;;;;6.03;2.90;;;26.00;99.90;;;;;;5054459;27;1248815;-61
2023/08/13 08:48:40;;;;;;;6.05;1.85;;;26.20;99.90;;;;;;5094783;28;20076;-59
2023/08/13 08:51:07;;;;;;;5.05;1.48;;;26.10;99.90;;;;;;5093883;28;20083;-55
2023/08/13 08:53:34;;;;;;;7.35;1.55;;;25.90;99.90;;;;;;5092190;28;20055;-57
2023/08/13 08:58:29;;;;;;;4.03;1.55;;;25.60;99.90;;;;;;5096996;27;20173;-56
2023/08/13 09:01:00;;;;;;;3.60;1.60;;;26.30;99.90;;;;;;5087028;27;20056;-56
2023/08/13 09:03:25;;;;;;;5.20;1.50;;;26.10;99.90;;;;;;5098804;27;20094;-56
2023/08/13 09:05:51;;;;;;;6.25;2.22;;;26.50;99.90;;;;;;5092009;27;20087;-55
2023/08/13 09:08:16;;;;;;;6.43;1.88;;;26.70;99.90;;;;;;5068082;27;20135;-56
2023/08/13 09:10:43;;;;;;;6.53;1.33;;;25.90;99.90;;;;;;5097471;27;20143;-56
2023/08/13 09:13:09;;;;;;;6.22;1.35;;;25.90;99.90;;;;;;5094312;27;20051;-56
2023/08/13 09:15:47;;;;;;;3.58;1.45;;;25.90;99.90;;;;;;5091440;27;20611;-56
2023/08/13 09:18:13;;;;;;;4.80;1.75;;;25.20;99.90;;;;;;5098599;27;20058;-56
2023/08/13 09:20:46;;;;;;;5.40;1.25;;;26.00;99.90;;;;;;5097843;28;20614;-56
2023/08/13 09:23:22;;;;;;;6.75;1.98;;;25.70;99.90;;;;;;5067679;28;20144;-57
2023/08/13 09:25:56;;;;;;;7.95;1.95;;;26.40;99.90;;;;;;5092384;27;20052;-56
2023/08/13 09:28:21;;;;;;;3.42;1.33;;;26.60;99.90;;;;;;5102437;27;20071;-57
2023/08/13 09:30:48;;;;;;;5.65;1.35;;;26.20;99.90;;;;;;5106698;27;20047;-58
2023/08/13 09:33:15;;;;;;;3.53;1.60;;;25.80;99.90;;;;;;5105433;27;20063;-58
2023/08/13 09:35:42;;;;;;;4.88;1.85;;;26.10;99.90;;;;;;5103529;27;20087;-58
2023/08/13 09:38:08;;;;;;;2.75;1.15;;;26.10;99.90;;;;;;5093812;27;20043;-57
2023/08/13 09:40:35;;;;;;;6.07;1.73;;;26.80;99.90;;;;;;5092716;27;20059;-58
2023/08/13 09:43:09;;;;;;;4.80;2.10;;;26.80;99.90;;;;;;5104991;27;20499;-56
2023/08/13 09:45:35;;;;;;;3.38;0.98;;;27.30;99.90;;;;;;5092214;28;20760;-57
2023/08/13 09:48:06;;;;;;;4.57;1.10;;;26.80;99.90;;;;;;5098378;27;20056;-58
2023/08/13 09:50:34;;;;;;;3.15;1.23;;;27.80;99.90;;;;;;5100686;27;20067;-58
2023/08/13 09:53:08;;;;;;;4.90;1.38;;;28.00;99.90;;;;;;5091193;27;20092;-57
2023/08/13 09:55:39;;;;;;;7.10;1.58;;;27.20;99.90;;;;;;5083379;27;20147;-57
2023/08/13 09:58:07;;;;;;;6.90;1.35;;;27.60;99.90;;;;;;5089050;27;20102;-57
2023/08/13 10:00:34;;;;;;;4.47;1.88;;;27.70;99.90;;;;;;5102845;27;20206;-57
2023/08/13 10:05:25;;;;;;;5.78;1.25;;;27.40;99.90;;;;;;5096525;27;20176;-57
2023/08/13 10:07:51;;;;;;;4.78;2.00;;;27.80;99.90;;;;;;5097778;27;20052;-55
2023/08/13 10:10:17;;;;;;;5.15;1.73;;;27.60;99.90;;;;;;5092861;27;20051;-56
2023/08/13 10:12:44;;;;;;;3.30;1.42;;;27.90;99.90;;;;;;5097703;27;20512;-56
2023/08/13 10:15:11;;;;;;;2.65;1.27;;;27.90;99.90;;;;;;5088253;28;20097;-62
2023/08/13 10:17:37;;;;;;;4.60;1.42;;;27.30;99.90;;;;;;5086069;27;20086;-55
2023/08/13 10:20:05;;;;;;;3.53;1.40;;;26.80;99.90;;;;;;5067814;28;20416;-57
2023/08/13 10:22:34;;;;;;;1.63;0.93;;;27.50;99.90;;;;;;5093294;28;20062;-56
2023/08/13 10:25:07;;;;;;;4.35;1.33;;;26.80;99.90;;;;;;5095493;28;20643;-56
2023/08/13 10:27:45;;;;;;;3.20;1.33;;;26.40;99.90;;;;;;5092179;28;20066;-56
2023/08/13 10:30:12;;;;;;;3.80;1.98;;;26.00;99.90;;;;;;5091020;28;20855;-56
2023/08/13 10:32:49;;;;;;;3.30;0.90;;;26.10;99.90;;;;;;5079869;28;20477;-60
2023/08/13 10:35:23;;;;;;;3.22;1.13;;;26.30;99.90;;;;;;5088123;28;20121;-56
2023/08/13 10:37:55;;;;;;;3.50;1.30;;;25.60;99.90;;;;;;5089624;28;20087;-58
2023/08/13 10:40:21;;;;;;;2.20;1.00;;;25.10;99.90;;;;;;5077534;28;20161;-63
2023/08/13 10:42:49;;;;;;;5.75;1.42;;;24.70;99.90;;;;;;5079564;28;20048;-64
2023/08/13 10:45:17;;;;;;;4.30;1.30;;;25.30;99.90;;;;;;5090834;27;20059;-56
2023/08/13 10:47:49;;;;;;;1.65;0.93;;;25.10;99.90;;;;;;5083162;28;20059;-60
2023/08/13 10:50:28;;;;;;;4.78;1.40;;;25.30;99.90;;;;;;5101885;27;20078;-61
2023/08/13 10:53:03;;;;;;;6.45;2.03;;;24.90;99.90;;;;;;5080591;28;20101;-64
2023/08/13 10:55:32;;;;;;;3.30;1.65;;;25.00;99.90;;;;;;5101667;27;20408;-65
2023/08/13 10:57:59;;;;;;;3.63;1.40;;;24.90;99.90;;;;;;5101249;28;20113;-64
2023/08/13 11:00:27;;;;;;;5.00;1.00;;;25.80;99.90;;;;;;5098989;28;20490;-58
2023/08/13 11:05:27;;;;;;;2.95;1.10;;;27.20;99.90;;;;;;5077933;28;20082;-64
2023/08/13 11:07:52;;;;;;;3.42;1.60;;;27.50;99.90;;;;;;5055711;28;20409;-65
2023/08/13 11:10:19;;;;;;;3.20;1.10;;;28.20;99.90;;;;;;5077520;28;20056;-65
2023/08/13 11:12:46;;;;;;;2.78;1.00;;;27.80;99.90;;;;;;5067693;28;20056;-66
2023/08/13 11:15:12;;;;;;;2.83;0.90;;;27.70;99.90;;;;;;5047205;28;20494;-63
2023/08/13 11:17:40;;;;;;;2.15;0.90;;;27.60;99.90;;;;;;5094319;28;20585;-56
2023/08/13 11:20:07;;;;;;;1.88;0.80;;;27.00;99.90;;;;;;5074697;28;20052;-58
2023/08/13 11:22:33;;;;;;;2.08;1.05;;;27.10;99.90;;;;;;5090503;28;20067;-59
2023/08/13 11:24:58;;;;;;;3.47;1.23;;;26.70;99.90;;;;;;5098007;28;20062;-57
2023/08/13 11:27:29;;;;;;;2.83;0.85;;;27.00;99.90;;;;;;5059368;28;20048;-59
2023/08/13 11:29:55;;;;;;;1.50;0.77;;;27.20;99.90;;;;;;5101162;27;20051;-56
2023/08/13 11:32:23;;;;;;;2.03;0.75;;;27.00;99.90;;;;;;5060070;28;20481;-56
2023/08/13 11:34:49;;;;;;;1.92;0.65;;;26.40;99.90;;;;;;5081594;28;20053;-56
2023/08/13 11:37:15;;;;;;;3.53;1.23;;;27.50;99.90;;;;;;5052902;28;20145;-56
2023/08/13 11:39:44;;;;;;;1.52;0.68;;;28.00;99.90;;;;;;5050356;28;20114;-56
2023/08/13 11:42:10;;;;;;;3.85;1.27;;;27.90;99.90;;;;;;5052343;28;20811;-56
2023/08/13 11:44:37;;;;;;;5.95;0.95;;;27.30;99.90;;;;;;5101765;27;20056;-57
2023/08/13 11:47:04;;;;;;;2.17;1.00;;;26.80;99.90;;;;;;5104381;27;20575;-57
2023/08/13 11:49:39;;;;;;;2.95;1.02;;;26.50;99.90;;;;;;5094746;27;20056;-56
2023/08/13 11:52:06;;;;;;;4.63;0.70;;;25.90;99.90;;;;;;5103596;27;20143;-54
2023/08/13 11:54:34;;;;;;;2.22;0.80;;;25.80;99.90;;;;;;5092950;27;20421;-57
2023/08/13 11:59:30;;;;;;;2.95;0.90;;;26.10;99.90;;;;;;5099665;27;20060;-56
2023/08/13 12:01:56;;;;;;;3.45;1.13;;;25.70;99.90;;;;;;5100144;27;20063;-57
2023/08/13 12:04:23;;;;;;;3.65;1.10;;;25.30;99.90;;;;;;5099565;27;20056;-56
2023/08/13 12:06:52;;;;;;;2.95;0.93;;;25.50;99.90;;;;;;5091515;27;20063;-56
2023/08/13 12:09:19;;;;;;;4.60;1.10;;;25.60;99.90;;;;;;5097426;27;20095;-56
2023/08/13 12:11:44;;;;;;;3.40;0.90;;;25.40;99.90;;;;;;5090736;27;20093;-58
2023/08/13 12:14:13;;;;;;;1.13;0.77;;;25.30;99.90;;;;;;5073308;27;20122;-56
2023/08/13 12:16:39;;;;;;;4.53;0.70;;;24.60;99.90;;;;;;5097764;27;20618;-56
2023/08/13 12:19:06;;;;;;;2.42;1.13;;;25.60;99.90;;;;;;5101103;27;20054;-56
2023/08/13 12:21:33;;;;;;;1.80;0.80;;;25.80;99.90;;;;;;5086684;27;20060;-58
2023/08/13 12:23:59;;;;;;;2.55;0.93;;;26.10;99.90;;;;;;5098845;27;20055;-56
2023/08/13 12:26:24;;;;;;;2.40;0.85;;;26.00;99.90;;;;;;5093428;27;20075;-56
2023/08/13 12:28:50;;;;;;;3.15;1.15;;;26.20;99.90;;;;;;5091038;27;20063;-56
2023/08/13 12:31:19;;;;;;;1.83;1.02;;;26.50;99.90;;;;;;5095000;27;20055;-57
2023/08/13 12:33:46;;;;;;;2.33;0.55;;;26.30;99.90;;;;;;5102108;27;20055;-55
2023/08/13 12:36:12;;;;;;;1.50;0.90;;;26.40;99.90;;;;;;5090814;27;20226;-57
2023/08/13 12:38:39;;;;;;;1.55;0.73;;;26.40;99.90;;;;;;5098790;27;20493;-58
2023/08/13 12:41:06;;;;;;;1.92;0.90;;;26.80;99.90;;;;;;5093403;27;20071;-59
2023/08/13 12:43:34;;;;;;;5.03;1.30;;;27.00;99.90;;;;;;5079303;27;20084;-58
2023/08/13 12:46:05;;;;;;;2.30;0.88;;;27.50;99.90;;;;;;5090145;27;20085;-59
2023/08/13 12:48:32;;;;;;;2.65;0.77;;;28.20;99.90;;;;;;5100444;27;20991;-56
2023/08/13 12:50:59;;;;;;;2.70;0.80;;;28.40;99.90;;;;;;5088970;27;20068;-56
2023/08/13 12:53:25;;;;;;;2.78;0.70;;;28.60;99.90;;;;;;5091056;27;20059;-56
2023/08/13 12:55:51;;;;;;;1.73;0.70;;;27.90;99.90;;;;;;5098605;27;20059;-56